Aeroporto :
LOGIN :

Iscrizione | Disclaimer

   EN    FR    IT 

 










Sommario :    VFR   VFR Marginale   IFR   IFR Intensivo   IFR Molto Intensivo
Visibilità : 
Base nubi : 
>= 8 km
>= 3000ft
5 / 8 km
1000 / 3000 ft
1500m / 5 km
500 / 1000 ft
800 / 1500m
200 / 500 ft
< 800m
< 200 ft
Simboli :   Temporali  Nebbia  Neve Forte  Precipitazioni Forti  Vento > 20 kt
SIGMETs :   Varie  Temporali  Ghiacco  Turbolenza  Onda orograficha  Ceneri Vulcaniche







- Altitudine del aeroporto : 94 ft
- Codice IATA : QLT


LIRL - Latina Casale (military)

ULTIMO METAR :
  • 161755Z 09005KT 9999 SCT030 BKN060 25/22 Q1012

METARs OBSOLETI :
  • 161655Z 19009KT 9999 -RA SCT025 BKN060 26/21 Q1013

TAF TAF LIRL
Valido dal 16 a 18 ore il 17 a 03 ore UTC


161700Z 1618/1703 17013KT 9999 SCT025 BKN050
TEMPO 1618/1621 RA
PROB40
TEMPO 1621/1624 5000 SHRA FEW020CB BKN025
Nessun NOTAM noto per questo aeroporto.
6 SIGMETs conosciuti per la FIR Roma (LIRR) :
 
Turbolenza severa
LIRR SIGMET 9 VALID 162010/170010 LIIB
LIRR ROMA FIR SEV TURB FCST N OF LINE N3943 E00749 - N4137 E01440 ABV FL240 STNR WKN=
Temporali affogati
LIRR SIGMET 8 VALID 161940/162359 LIIB
LIRR ROMA FIR EMBD TS FCST WI N4113 E00950 - N4028 E01232 - N4127 E01417 - N4254 E01307 - N4329 E01319 - N4343 E01127 - N4332 E01016 - N4309 E00948 - N4113 E00950 TOP ABV FL330 MOV NE NC=
Temporali affogati
LIRR SIGMET 7 VALID 161610/162010 LIIB
LIRR ROMA FIR EMBD TS FCST WI N4118 E00903 - N4015 E00904 - N3911 E01025 - N4103 E01349 - N4333 E01018 - N4307 E00945 - N4122 E00944 - N4118 E00903 TOP ABV FL330 MOV NE NC=
Forte formazione di ghiaccio
LIRR SIGMET 6 VALID 161610/162010 LIIB
LIRR ROMA FIR SEV ICE FCST WI N4031 E01529 - N4011 E01402 - N4100 E00801 - N4118 E00817 - N4119 E00945 - N4311 E00944 - N4332 E01018 - N4343 E01058 - N4332 E01316 - N4301 E01303 - N4126 E01425 - N4114 E01507 - N4031 E01529 ABV FL200 STNR NC=
Turbolenza severa
LIRR SIGMET 5 VALID 161610/162010 LIIB
LIRR ROMA FIR SEV TURB FCST N OF LINE N3943 E00749 - N4137 E01440 ABV FL240 STNR NC=
Cancellazione del SIGMET 7 
LIRR SIGMET 10 VALID 161942/162010 LIIB
LIRR ROMA FIR CNL SIGMET 7 161610/162010=



MetMap, La meteo Aeronautica in un colpo d'occhio ! - Copyright ORBIFLY Dicembre 2007 - Disclaimer

ORBIFLY MET'MAP TEAM :

Programmazione e sviluppo : Alexandra Zaïnal
Concezione e sviluppo : Baudouin d'Aumeries
Co-Programmazione e sviluppo : Marc-Olivier Méhu
Supporto tecnico e logistico : Manuel Goepfert
Aiuto per la traduzione : Arnaldo La Scala

Contatto : metmap@orbifly.com




FONTI E CREDITI :

   NOAA